Time;durP1;ratioP1;P1;durP2;ratioP2;P2;SDS_P1;SDS_P2;PMS_P1;PMS_P2;Temp;Humidity;BMP_temperature;BMP_pressure;BME280_temperature;BME280_humidity;BME280_pressure;Samples;Min_cycle;Max_cycle;Signal;HPM_P1;HPM_P2
2024/03/20 00:02:19;;;;;;;15.05;6.97;;;;;;;;;;5053842;28;20263;-74
2024/03/20 00:04:45;;;;;;;10.63;6.43;;;;;;;;;;5053804;28;20268;-73
2024/03/20 00:07:10;;;;;;;13.82;6.97;;;;;;;;;;5059753;28;20197;-73
2024/03/20 00:09:36;;;;;;;13.68;7.03;;;;;;;;;;5054064;28;20196;-73
2024/03/20 00:12:02;;;;;;;14.30;6.82;;;;;;;;;;5047842;28;20260;-74
2024/03/20 00:14:28;;;;;;;17.58;6.97;;;;;;;;;;5054770;28;20205;-73
2024/03/20 00:16:56;;;;;;;15.40;6.68;;;;;;;;;;5054435;28;20236;-72
2024/03/20 00:19:22;;;;;;;13.40;7.10;;;;;;;;;;5052813;28;20228;-73
2024/03/20 00:21:48;;;;;;;17.52;7.47;;;;;;;;;;5054659;28;20225;-73
2024/03/20 00:24:13;;;;;;;16.10;6.88;;;;;;;;;;5056284;28;20572;-73
2024/03/20 00:26:39;;;;;;;11.77;6.50;;;;;;;;;;5053618;28;20188;-73
2024/03/20 00:29:05;;;;;;;10.90;6.32;;;;;;;;;;5055696;28;20185;-72
2024/03/20 00:31:30;;;;;;;12.50;6.38;;;;;;;;;;5053762;28;20544;-73
2024/03/20 00:33:56;;;;;;;13.98;7.68;;;;;;;;;;5049635;28;20218;-73
2024/03/20 00:36:21;;;;;;;15.40;6.78;;;;;;;;;;5052848;28;20229;-73
2024/03/20 00:38:47;;;;;;;14.55;7.53;;;;;;;;;;5048313;28;20222;-73
2024/03/20 00:41:13;;;;;;;16.80;7.57;;;;;;;;;;5050828;28;20207;-72
2024/03/20 00:43:38;;;;;;;15.52;7.45;;;;;;;;;;5054496;28;20640;-72
2024/03/20 00:46:04;;;;;;;11.63;7.30;;;;;;;;;;5054672;28;20185;-73
2024/03/20 00:48:30;;;;;;;15.65;7.82;;;;;;;;;;5057434;28;20188;-72
2024/03/20 00:50:55;;;;;;;14.85;8.20;;;;;;;;;;5060734;28;20242;-73
2024/03/20 00:53:21;;;;;;;15.23;7.95;;;;;;;;;;5063786;28;20181;-72
2024/03/20 00:55:46;;;;;;;13.25;7.40;;;;;;;;;;5057260;28;20211;-72
2024/03/20 00:58:12;;;;;;;11.88;7.80;;;;;;;;;;5062644;28;20230;-72
2024/03/20 01:00:38;;;;;;;17.15;7.10;;;;;;;;;;5058614;28;20599;-73
2024/03/20 01:03:04;;;;;;;15.80;7.05;;;;;;;;;;5054691;28;20249;-73
2024/03/20 01:05:29;;;;;;;13.73;7.18;;;;;;;;;;5057797;28;20280;-72
2024/03/20 01:07:55;;;;;;;15.48;7.82;;;;;;;;;;5057256;28;20350;-73
2024/03/20 01:10:20;;;;;;;13.63;7.53;;;;;;;;;;5061091;28;20224;-72
2024/03/20 01:12:46;;;;;;;12.02;7.78;;;;;;;;;;5061150;28;20698;-72
2024/03/20 01:15:11;;;;;;;15.90;8.10;;;;;;;;;;5057746;28;20257;-72
2024/03/20 01:17:37;;;;;;;17.00;8.13;;;;;;;;;;5057763;28;20556;-72
2024/03/20 01:20:03;;;;;;;15.02;7.75;;;;;;;;;;5056919;28;20220;-73
2024/03/20 01:22:39;;;;;;;15.00;7.65;;;;;;;;;;5056411;28;20208;-72
2024/03/20 01:25:05;;;;;;;13.25;7.32;;;;;;;;;;5058227;28;20241;-72
2024/03/20 01:27:31;;;;;;;14.00;8.40;;;;;;;;;;5058636;28;20181;-72
2024/03/20 01:29:57;;;;;;;16.00;7.90;;;;;;;;;;5059615;28;20188;-72
2024/03/20 01:32:22;;;;;;;15.38;8.45;;;;;;;;;;5061589;28;20367;-72
2024/03/20 01:34:49;;;;;;;15.00;9.02;;;;;;;;;;5067251;28;20221;-72
2024/03/20 01:37:14;;;;;;;14.27;8.95;;;;;;;;;;5062343;28;20298;-72
2024/03/20 01:39:40;;;;;;;13.82;7.68;;;;;;;;;;5055164;28;20189;-72
2024/03/20 01:42:06;;;;;;;17.27;8.48;;;;;;;;;;5055344;28;20185;-72
2024/03/20 01:44:32;;;;;;;12.70;8.18;;;;;;;;;;5053991;28;20195;-72
2024/03/20 01:46:57;;;;;;;12.90;8.10;;;;;;;;;;5059857;28;20189;-72
2024/03/20 01:49:23;;;;;;;12.30;7.47;;;;;;;;;;5059057;28;20200;-73
2024/03/20 01:51:49;;;;;;;17.73;8.07;;;;;;;;;;5058852;28;20201;-72
2024/03/20 01:54:15;;;;;;;16.60;8.02;;;;;;;;;;5051283;28;20193;-72
2024/03/20 01:56:42;;;;;;;12.30;7.55;;;;;;;;;;5055162;28;20497;-73
2024/03/20 01:59:09;;;;;;;11.20;7.72;;;;;;;;;;5058699;28;20181;-73
2024/03/20 02:01:34;;;;;;;14.98;7.57;;;;;;;;;;5056737;28;20624;-73
2024/03/20 02:04:02;;;;;;;14.45;7.95;;;;;;;;;;5044498;28;20189;-72
2024/03/20 02:06:28;;;;;;;12.55;8.27;;;;;;;;;;5056653;28;20246;-72
2024/03/20 02:08:56;;;;;;;12.75;7.85;;;;;;;;;;5055146;28;20254;-72
2024/03/20 02:11:24;;;;;;;15.13;8.18;;;;;;;;;;5060629;28;20197;-72
2024/03/20 02:13:52;;;;;;;17.05;8.18;;;;;;;;;;5044350;28;20654;-72
2024/03/20 02:16:19;;;;;;;16.17;8.30;;;;;;;;;;5057093;28;20212;-72
2024/03/20 02:18:46;;;;;;;11.57;7.85;;;;;;;;;;5056483;28;20216;-72
2024/03/20 02:21:12;;;;;;;12.27;8.10;;;;;;;;;;5056353;28;20192;-73
2024/03/20 02:23:38;;;;;;;18.33;8.48;;;;;;;;;;5055726;28;20577;-72
2024/03/20 02:26:05;;;;;;;13.30;8.27;;;;;;;;;;5057834;28;20244;-72
2024/03/20 02:28:32;;;;;;;14.30;8.88;;;;;;;;;;5056310;28;20205;-72
2024/03/20 02:30:58;;;;;;;18.60;8.75;;;;;;;;;;5055624;28;20205;-72
2024/03/20 02:33:23;;;;;;;15.07;8.50;;;;;;;;;;5054857;28;20197;-72
2024/03/20 02:35:52;;;;;;;11.88;8.57;;;;;;;;;;5056032;28;20241;-73
2024/03/20 02:38:18;;;;;;;16.00;8.88;;;;;;;;;;5056371;28;20989;-73
2024/03/20 02:40:43;;;;;;;16.23;9.40;;;;;;;;;;5051190;28;20186;-73
2024/03/20 02:43:09;;;;;;;11.27;8.75;;;;;;;;;;5053206;28;20374;-71
2024/03/20 02:45:34;;;;;;;14.13;8.40;;;;;;;;;;5061592;28;20287;-72
2024/03/20 02:48:00;;;;;;;13.90;7.72;;;;;;;;;;5047453;28;20704;-73
2024/03/20 02:50:25;;;;;;;14.52;8.00;;;;;;;;;;5050384;28;20272;-73
2024/03/20 02:52:50;;;;;;;12.52;8.02;;;;;;;;;;5052546;28;20910;-73
2024/03/20 02:55:16;;;;;;;15.73;8.82;;;;;;;;;;5048493;28;20220;-73
2024/03/20 02:57:41;;;;;;;11.45;8.40;;;;;;;;;;5053819;28;20253;-73
2024/03/20 03:00:07;;;;;;;13.00;7.93;;;;;;;;;;5054882;28;20185;-73
2024/03/20 03:02:33;;;;;;;12.88;7.90;;;;;;;;;;5053470;28;20196;-73
2024/03/20 03:04:58;;;;;;;13.98;8.10;;;;;;;;;;5056262;28;20172;-73
2024/03/20 03:07:26;;;;;;;12.25;7.72;;;;;;;;;;5054545;28;20260;-72
2024/03/20 03:09:51;;;;;;;11.15;8.40;;;;;;;;;;5055517;28;20721;-73
2024/03/20 03:12:17;;;;;;;13.90;8.20;;;;;;;;;;5054100;28;20282;-73
2024/03/20 03:14:42;;;;;;;13.13;8.60;;;;;;;;;;5056325;28;20966;-73
2024/03/20 03:17:08;;;;;;;15.13;9.73;;;;;;;;;;5056942;28;20180;-72
2024/03/20 03:19:33;;;;;;;14.82;9.40;;;;;;;;;;5057490;28;20227;-73
2024/03/20 03:21:58;;;;;;;13.15;9.15;;;;;;;;;;5056924;28;20193;-73
2024/03/20 03:24:24;;;;;;;14.02;9.07;;;;;;;;;;5063640;28;20204;-72
2024/03/20 03:26:49;;;;;;;14.85;9.10;;;;;;;;;;5053958;28;20207;-73
2024/03/20 03:29:15;;;;;;;13.63;8.23;;;;;;;;;;5062850;28;20189;-73
2024/03/20 03:31:40;;;;;;;14.13;8.88;;;;;;;;;;5054452;28;20241;-73
2024/03/20 03:34:06;;;;;;;13.27;8.82;;;;;;;;;;5061840;28;20188;-73
2024/03/20 03:36:32;;;;;;;13.93;8.90;;;;;;;;;;5059047;28;20306;-73
2024/03/20 03:38:58;;;;;;;16.77;8.43;;;;;;;;;;5055561;28;20719;-73
2024/03/20 03:41:23;;;;;;;13.02;8.35;;;;;;;;;;5048403;28;20243;-73
2024/03/20 03:43:49;;;;;;;11.25;8.48;;;;;;;;;;5054814;28;20192;-73
2024/03/20 03:46:15;;;;;;;12.55;8.15;;;;;;;;;;5054376;28;20228;-72
2024/03/20 03:48:40;;;;;;;14.32;8.68;;;;;;;;;;5055687;28;20263;-73
2024/03/20 03:51:06;;;;;;;10.55;8.13;;;;;;;;;;5051486;28;20209;-73
2024/03/20 03:53:31;;;;;;;11.65;9.05;;;;;;;;;;5051073;28;20232;-72
2024/03/20 03:55:57;;;;;;;13.65;8.93;;;;;;;;;;5055942;28;20303;-72
2024/03/20 03:58:22;;;;;;;15.18;9.13;;;;;;;;;;5053595;28;20271;-73
2024/03/20 04:00:47;;;;;;;12.25;9.30;;;;;;;;;;5058346;28;20284;-72
2024/03/20 04:03:13;;;;;;;16.45;9.07;;;;;;;;;;5055209;28;20505;-72
2024/03/20 04:05:38;;;;;;;13.45;9.00;;;;;;;;;;5054825;28;20293;-72
2024/03/20 04:08:04;;;;;;;14.38;9.43;;;;;;;;;;5054298;28;20224;-72
2024/03/20 04:10:29;;;;;;;17.73;9.30;;;;;;;;;;5052789;28;20560;-72
2024/03/20 04:12:55;;;;;;;14.93;8.93;;;;;;;;;;5049809;28;20192;-72
2024/03/20 04:15:20;;;;;;;14.55;10.23;;;;;;;;;;5050941;28;20219;-72
2024/03/20 04:17:46;;;;;;;16.45;9.73;;;;;;;;;;5052953;28;20197;-72
2024/03/20 04:20:11;;;;;;;12.88;9.32;;;;;;;;;;5050794;28;20677;-72
2024/03/20 04:22:44;;;;;;;16.35;9.45;;;;;;;;;;5054806;28;20590;-72
2024/03/20 04:25:09;;;;;;;16.25;9.50;;;;;;;;;;5064083;28;20251;-72
2024/03/20 04:27:38;;;;;;;13.63;9.70;;;;;;;;;;5061099;28;20216;-72
2024/03/20 04:30:04;;;;;;;16.85;9.75;;;;;;;;;;5051442;28;20193;-72
2024/03/20 04:32:32;;;;;;;18.13;9.18;;;;;;;;;;5049016;28;20193;-72
2024/03/20 04:34:57;;;;;;;15.95;9.35;;;;;;;;;;5051995;28;20213;-72
2024/03/20 04:37:22;;;;;;;14.52;9.80;;;;;;;;;;5014840;28;1130755;-72
2024/03/20 04:39:48;;;;;;;13.63;9.48;;;;;;;;;;5052074;28;20251;-72
2024/03/20 04:42:13;;;;;;;17.38;9.48;;;;;;;;;;5050112;28;20196;-72
2024/03/20 04:44:39;;;;;;;15.95;10.30;;;;;;;;;;5052208;28;20636;-72
2024/03/20 04:47:05;;;;;;;16.90;10.15;;;;;;;;;;5051551;28;20590;-72
2024/03/20 04:49:30;;;;;;;14.80;9.18;;;;;;;;;;5054137;28;20215;-72
2024/03/20 04:51:56;;;;;;;14.65;10.43;;;;;;;;;;5053165;28;20192;-72
2024/03/20 04:54:21;;;;;;;15.85;9.90;;;;;;;;;;5055345;28;20185;-72
2024/03/20 04:56:47;;;;;;;15.90;9.65;;;;;;;;;;5052024;28;20299;-72
2024/03/20 04:59:12;;;;;;;16.30;10.07;;;;;;;;;;5050614;28;20291;-72
2024/03/20 05:01:38;;;;;;;15.82;9.73;;;;;;;;;;5051457;28;20595;-72
2024/03/20 05:04:03;;;;;;;16.55;10.60;;;;;;;;;;5050407;28;20279;-72
2024/03/20 05:06:29;;;;;;;14.27;9.40;;;;;;;;;;5053098;28;20191;-71
2024/03/20 05:08:54;;;;;;;19.20;10.30;;;;;;;;;;5053932;28;20185;-72
2024/03/20 05:11:20;;;;;;;14.30;9.85;;;;;;;;;;5052905;28;20292;-72
2024/03/20 05:13:45;;;;;;;15.45;10.75;;;;;;;;;;5055757;28;20556;-72
2024/03/20 05:16:11;;;;;;;16.23;10.10;;;;;;;;;;5053471;28;20208;-72
2024/03/20 05:18:36;;;;;;;14.70;9.90;;;;;;;;;;5053349;28;20217;-72
2024/03/20 05:21:02;;;;;;;16.65;9.70;;;;;;;;;;5054482;28;20239;-72
2024/03/20 05:23:27;;;;;;;16.95;10.50;;;;;;;;;;5052819;28;20201;-72
2024/03/20 05:25:57;;;;;;;16.35;10.27;;;;;;;;;;5053908;28;20185;-72
2024/03/20 05:28:24;;;;;;;14.48;9.98;;;;;;;;;;5052927;28;20543;-72
2024/03/20 05:30:50;;;;;;;19.52;10.70;;;;;;;;;;5052674;28;20198;-72
2024/03/20 05:33:18;;;;;;;18.73;10.75;;;;;;;;;;5050333;28;21523;-72
2024/03/20 05:35:44;;;;;;;16.25;10.20;;;;;;;;;;5053227;28;20723;-72
2024/03/20 05:38:10;;;;;;;16.33;10.65;;;;;;;;;;5055098;28;20217;-72
2024/03/20 05:40:35;;;;;;;16.88;10.27;;;;;;;;;;5055808;28;20269;-73
2024/03/20 05:43:01;;;;;;;17.02;10.15;;;;;;;;;;5055918;28;20181;-72
2024/03/20 05:45:27;;;;;;;14.68;10.15;;;;;;;;;;5053718;28;20267;-73
2024/03/20 05:47:52;;;;;;;15.75;10.25;;;;;;;;;;5054962;28;20194;-72
2024/03/20 05:50:18;;;;;;;17.15;9.65;;;;;;;;;;5058309;28;20687;-72
2024/03/20 05:52:44;;;;;;;14.98;9.63;;;;;;;;;;5057963;28;20181;-72
2024/03/20 05:55:13;;;;;;;17.92;10.70;;;;;;;;;;5052774;28;20497;-72
2024/03/20 05:57:38;;;;;;;16.50;10.23;;;;;;;;;;5055354;28;20279;-72
2024/03/20 06:00:04;;;;;;;16.90;11.10;;;;;;;;;;5050230;28;20279;-72
2024/03/20 06:02:30;;;;;;;17.65;10.93;;;;;;;;;;5058545;28;20192;-72
2024/03/20 06:04:55;;;;;;;20.17;11.85;;;;;;;;;;5058778;28;20199;-72
2024/03/20 06:07:20;;;;;;;18.45;10.10;;;;;;;;;;5054473;28;20193;-72
2024/03/20 06:09:46;;;;;;;21.25;10.88;;;;;;;;;;5052306;28;20185;-72
2024/03/20 06:12:11;;;;;;;14.70;10.38;;;;;;;;;;5055148;28;20199;-72
2024/03/20 06:14:37;;;;;;;15.32;10.50;;;;;;;;;;5055828;28;20196;-72
2024/03/20 06:17:04;;;;;;;19.58;10.07;;;;;;;;;;5057211;28;20193;-73
2024/03/20 06:19:29;;;;;;;17.67;10.50;;;;;;;;;;5049273;28;20211;-73
2024/03/20 06:21:55;;;;;;;16.58;10.40;;;;;;;;;;5052862;28;20188;-73
2024/03/20 06:24:20;;;;;;;17.33;11.23;;;;;;;;;;5055918;28;20197;-73
2024/03/20 06:26:46;;;;;;;19.85;11.75;;;;;;;;;;5054161;28;21912;-74
2024/03/20 06:29:11;;;;;;;17.02;10.10;;;;;;;;;;5051434;28;20264;-73
2024/03/20 06:31:37;;;;;;;19.20;12.98;;;;;;;;;;5056718;28;20667;-73
2024/03/20 06:34:03;;;;;;;20.98;11.18;;;;;;;;;;5056478;28;20196;-72
2024/03/20 06:36:29;;;;;;;17.95;10.57;;;;;;;;;;5051266;28;20228;-72
2024/03/20 06:38:54;;;;;;;18.63;12.20;;;;;;;;;;5056017;28;20232;-72
2024/03/20 06:41:20;;;;;;;17.48;10.68;;;;;;;;;;5039540;28;20189;-73
2024/03/20 06:43:50;;;;;;;18.80;11.27;;;;;;;;;;5058854;28;20188;-73
2024/03/20 06:46:19;;;;;;;18.70;11.05;;;;;;;;;;5055908;28;20193;-73
2024/03/20 06:48:46;;;;;;;19.65;11.70;;;;;;;;;;5051633;28;20193;-73
2024/03/20 06:51:15;;;;;;;18.67;11.23;;;;;;;;;;5054897;28;20184;-73
2024/03/20 06:53:41;;;;;;;15.32;11.65;;;;;;;;;;5055844;28;20659;-74
2024/03/20 06:56:06;;;;;;;16.90;11.68;;;;;;;;;;5059343;28;20262;-73
2024/03/20 06:58:32;;;;;;;15.82;11.02;;;;;;;;;;5056585;28;20227;-73
2024/03/20 07:00:58;;;;;;;14.73;10.75;;;;;;;;;;5059702;28;20177;-73
2024/03/20 07:03:23;;;;;;;17.90;11.27;;;;;;;;;;5060687;28;20197;-73
2024/03/20 07:05:49;;;;;;;18.75;10.88;;;;;;;;;;5057666;28;20236;-73
2024/03/20 07:08:14;;;;;;;16.63;10.35;;;;;;;;;;5049623;28;20250;-73
2024/03/20 07:10:40;;;;;;;15.93;10.32;;;;;;;;;;5058986;28;20188;-73
2024/03/20 07:13:06;;;;;;;17.05;10.55;;;;;;;;;;5059676;28;20290;-73
2024/03/20 07:15:32;;;;;;;19.05;10.75;;;;;;;;;;5051297;28;20208;-73
2024/03/20 07:18:01;;;;;;;18.35;10.45;;;;;;;;;;5054092;28;20246;-73
2024/03/20 07:20:26;;;;;;;16.95;10.20;;;;;;;;;;5054314;28;20284;-73
2024/03/20 07:22:52;;;;;;;18.02;10.80;;;;;;;;;;5054081;28;20272;-73
2024/03/20 07:25:18;;;;;;;21.88;10.35;;;;;;;;;;5053447;28;20561;-73
2024/03/20 07:27:43;;;;;;;18.40;11.02;;;;;;;;;;5054301;28;20189;-72
2024/03/20 07:30:09;;;;;;;21.77;11.57;;;;;;;;;;5057002;28;20230;-73
2024/03/20 07:32:37;;;;;;;19.83;11.15;;;;;;;;;;5053299;28;20209;-73
2024/03/20 07:35:04;;;;;;;20.42;10.95;;;;;;;;;;5052050;28;20209;-73
2024/03/20 07:37:29;;;;;;;19.13;11.48;;;;;;;;;;5056860;28;20240;-72
2024/03/20 07:39:55;;;;;;;21.73;11.10;;;;;;;;;;5057318;28;20188;-73
2024/03/20 07:42:20;;;;;;;15.15;11.02;;;;;;;;;;5053414;28;20282;-73
2024/03/20 07:44:47;;;;;;;16.75;10.73;;;;;;;;;;5055172;28;20212;-73
2024/03/20 07:47:13;;;;;;;18.08;10.45;;;;;;;;;;5056607;28;20547;-72
2024/03/20 07:49:40;;;;;;;19.50;10.82;;;;;;;;;;5032698;28;20196;-72
2024/03/20 07:52:05;;;;;;;20.85;10.95;;;;;;;;;;5048985;28;20649;-73
2024/03/20 07:54:31;;;;;;;19.50;10.40;;;;;;;;;;5059537;28;20207;-73
2024/03/20 07:56:56;;;;;;;18.63;10.80;;;;;;;;;;5053523;28;20675;-74
2024/03/20 07:59:25;;;;;;;17.83;10.43;;;;;;;;;;5045513;28;20276;-73
2024/03/20 08:01:52;;;;;;;20.85;11.55;;;;;;;;;;5053977;28;20217;-73
2024/03/20 08:04:17;;;;;;;20.85;11.90;;;;;;;;;;5061148;28;20191;-73
2024/03/20 08:06:43;;;;;;;19.73;10.60;;;;;;;;;;5059782;28;20185;-73
2024/03/20 08:09:09;;;;;;;21.67;11.77;;;;;;;;;;5061415;28;20200;-72
2024/03/20 08:11:35;;;;;;;19.65;11.00;;;;;;;;;;5054676;28;20193;-73
2024/03/20 08:14:08;;;;;;;15.88;10.13;;;;;;;;;;5055774;28;20222;-73
2024/03/20 08:16:37;;;;;;;14.90;9.52;;;;;;;;;;5059158;28;20304;-72
2024/03/20 08:19:06;;;;;;;23.10;10.82;;;;;;;;;;5051311;28;20216;-72
2024/03/20 08:21:33;;;;;;;19.45;10.85;;;;;;;;;;5056803;28;20213;-73
2024/03/20 08:23:59;;;;;;;16.08;9.20;;;;;;;;;;5056105;28;20208;-73
2024/03/20 08:26:24;;;;;;;20.77;9.80;;;;;;;;;;5053293;28;20177;-73
2024/03/20 08:28:50;;;;;;;18.17;10.30;;;;;;;;;;5055939;28;20560;-73
2024/03/20 08:31:16;;;;;;;17.98;9.80;;;;;;;;;;5054677;28;20184;-73
2024/03/20 08:33:41;;;;;;;17.85;10.15;;;;;;;;;;5053353;28;20512;-73
2024/03/20 08:36:08;;;;;;;19.75;9.77;;;;;;;;;;5051920;28;20285;-73
2024/03/20 08:38:35;;;;;;;17.80;10.07;;;;;;;;;;5055237;28;20192;-73
2024/03/20 08:41:01;;;;;;;18.48;10.70;;;;;;;;;;5051592;28;20188;-72
2024/03/20 08:43:26;;;;;;;19.15;9.60;;;;;;;;;;5051498;28;20185;-73
2024/03/20 08:45:52;;;;;;;21.83;10.60;;;;;;;;;;5051802;28;20192;-72
2024/03/20 08:48:18;;;;;;;15.63;9.73;;;;;;;;;;5057739;28;20185;-72
2024/03/20 08:50:43;;;;;;;18.25;10.75;;;;;;;;;;5048350;28;20268;-72
2024/03/20 08:53:12;;;;;;;16.38;9.48;;;;;;;;;;5047651;28;20280;-72
2024/03/20 08:55:38;;;;;;;17.30;9.80;;;;;;;;;;5052588;28;20221;-72
2024/03/20 08:58:05;;;;;;;14.63;10.05;;;;;;;;;;5054431;28;20197;-72
2024/03/20 09:00:31;;;;;;;21.40;10.75;;;;;;;;;;5052846;28;20193;-73
2024/03/20 09:02:56;;;;;;;21.67;10.38;;;;;;;;;;5060032;28;20191;-72
2024/03/20 09:05:22;;;;;;;21.85;10.52;;;;;;;;;;5052899;28;20260;-73
2024/03/20 09:07:47;;;;;;;18.90;9.98;;;;;;;;;;5055145;28;20613;-72
2024/03/20 09:10:13;;;;;;;19.80;9.65;;;;;;;;;;5050925;28;20192;-72
2024/03/20 09:12:38;;;;;;;17.15;10.02;;;;;;;;;;5058589;28;20660;-72
2024/03/20 09:15:07;;;;;;;20.65;10.38;;;;;;;;;;5057678;28;20292;-72
2024/03/20 09:17:32;;;;;;;18.08;10.10;;;;;;;;;;5058052;28;20196;-72
2024/03/20 09:19:58;;;;;;;20.15;11.27;;;;;;;;;;5057270;28;20208;-73
2024/03/20 09:22:23;;;;;;;20.17;10.77;;;;;;;;;;5051593;28;20200;-73
2024/03/20 09:24:49;;;;;;;19.88;11.85;;;;;;;;;;5056688;28;21412;-73
2024/03/20 09:27:15;;;;;;;20.80;12.15;;;;;;;;;;5056488;28;20192;-73
2024/03/20 09:29:41;;;;;;;22.63;12.95;;;;;;;;;;5057898;28;20692;-73
2024/03/20 09:32:07;;;;;;;20.42;10.88;;;;;;;;;;5056176;28;20678;-73
2024/03/20 09:34:36;;;;;;;20.40;13.55;;;;;;;;;;5055810;28;20189;-73
2024/03/20 09:37:02;;;;;;;22.73;14.18;;;;;;;;;;5055482;28;20231;-73
2024/03/20 09:39:27;;;;;;;22.33;14.05;;;;;;;;;;5057785;28;20193;-73
2024/03/20 09:41:53;;;;;;;23.38;14.13;;;;;;;;;;5056594;28;20574;-73
2024/03/20 09:44:19;;;;;;;26.02;14.45;;;;;;;;;;5058167;28;20241;-73
2024/03/20 09:46:44;;;;;;;28.05;15.52;;;;;;;;;;5055097;28;20173;-73
2024/03/20 09:49:10;;;;;;;19.83;13.88;;;;;;;;;;5055477;28;20185;-73
2024/03/20 09:51:36;;;;;;;26.45;14.75;;;;;;;;;;5057969;28;20223;-72
2024/03/20 09:54:04;;;;;;;22.55;15.10;;;;;;;;;;5058721;28;20181;-72
2024/03/20 09:56:32;;;;;;;22.42;14.00;;;;;;;;;;5056119;28;20204;-73
2024/03/20 09:58:57;;;;;;;21.10;14.80;;;;;;;;;;5058469;28;20192;-73
2024/03/20 10:01:23;;;;;;;19.65;13.80;;;;;;;;;;5053505;28;21379;-73
2024/03/20 10:03:56;;;;;;;24.67;14.50;;;;;;;;;;5057007;28;20253;-73
2024/03/20 10:06:25;;;;;;;23.15;15.18;;;;;;;;;;5057459;28;20185;-73
2024/03/20 10:08:51;;;;;;;24.80;15.48;;;;;;;;;;5054008;28;20192;-73
2024/03/20 10:11:17;;;;;;;21.58;15.10;;;;;;;;;;5050932;28;20189;-73
2024/03/20 10:13:43;;;;;;;26.60;15.18;;;;;;;;;;5055717;28;20197;-73
2024/03/20 10:16:12;;;;;;;23.45;15.65;;;;;;;;;;5057212;28;20201;-73
2024/03/20 10:18:38;;;;;;;22.00;14.65;;;;;;;;;;5057700;28;20212;-73
2024/03/20 10:21:05;;;;;;;27.10;16.98;;;;;;;;;;5061012;28;20183;-73
2024/03/20 10:23:47;;;;;;;20.48;15.65;;;;;;;;;;5056679;28;20684;-73
2024/03/20 10:26:14;;;;;;;23.95;15.40;;;;;;;;;;5059609;28;20268;-73
2024/03/20 10:28:40;;;;;;;26.00;15.30;;;;;;;;;;5062380;28;20196;-73
2024/03/20 10:31:08;;;;;;;20.67;15.40;;;;;;;;;;5054149;28;20199;-73
2024/03/20 10:33:35;;;;;;;23.60;15.82;;;;;;;;;;5053864;28;20725;-72
2024/03/20 10:36:01;;;;;;;24.85;15.32;;;;;;;;;;5055908;28;20240;-72
2024/03/20 10:38:28;;;;;;;24.88;15.82;;;;;;;;;;5045686;28;20293;-72
2024/03/20 10:40:55;;;;;;;22.15;14.95;;;;;;;;;;5055842;28;20196;-72
2024/03/20 10:43:22;;;;;;;20.23;13.20;;;;;;;;;;5056421;28;20272;-72
2024/03/20 10:45:49;;;;;;;18.13;11.65;;;;;;;;;;5057203;28;20270;-72
2024/03/20 10:48:19;;;;;;;15.25;10.00;;;;;;;;;;5059954;28;20193;-72
2024/03/20 10:50:47;;;;;;;17.30;10.93;;;;;;;;;;5052409;28;20268;-73
2024/03/20 10:53:18;;;;;;;16.27;9.00;;;;;;;;;;5057830;28;20200;-73
2024/03/20 10:55:45;;;;;;;16.40;8.60;;;;;;;;;;5052703;28;20292;-73
2024/03/20 10:58:15;;;;;;;15.98;9.85;;;;;;;;;;5057426;28;20220;-73
2024/03/20 11:00:42;;;;;;;14.60;9.43;;;;;;;;;;5052603;28;20195;-72
2024/03/20 11:03:37;;;;;;;15.95;10.20;;;;;;;;;;5058269;28;20497;-72
2024/03/20 11:06:25;;;;;;;16.73;11.32;;;;;;;;;;5055778;28;20200;-73
2024/03/20 11:09:11;;;;;;;14.88;10.48;;;;;;;;;;5054310;28;20273;-73
2024/03/20 11:11:37;;;;;;;16.17;10.25;;;;;;;;;;5063419;28;20189;-72
2024/03/20 11:14:04;;;;;;;21.77;11.07;;;;;;;;;;5055462;28;20189;-72
2024/03/20 11:16:30;;;;;;;19.75;11.18;;;;;;;;;;5056607;28;20214;-72
2024/03/20 11:19:05;;;;;;;16.05;10.20;;;;;;;;;;5056611;28;20258;-73
2024/03/20 11:21:31;;;;;;;17.33;10.80;;;;;;;;;;5056740;28;20192;-73
2024/03/20 11:23:56;;;;;;;20.45;11.13;;;;;;;;;;5056438;28;20196;-73
2024/03/20 11:26:22;;;;;;;19.13;10.57;;;;;;;;;;5061012;28;20180;-72
2024/03/20 11:28:47;;;;;;;17.73;10.40;;;;;;;;;;5046754;28;20279;-72
2024/03/20 11:31:16;;;;;;;18.25;10.90;;;;;;;;;;5058592;28;20185;-72
2024/03/20 11:33:43;;;;;;;19.23;11.73;;;;;;;;;;5053890;28;20208;-72
2024/03/20 11:36:19;;;;;;;19.48;12.13;;;;;;;;;;5059212;28;20232;-72
2024/03/20 11:38:49;;;;;;;17.67;12.55;;;;;;;;;;5053826;28;20197;-72
2024/03/20 11:41:19;;;;;;;18.85;13.38;;;;;;;;;;5061372;28;20203;-72
2024/03/20 11:43:46;;;;;;;19.83;13.45;;;;;;;;;;5056018;28;20205;-72
2024/03/20 11:46:14;;;;;;;20.40;12.98;;;;;;;;;;5055090;28;20966;-72
2024/03/20 11:48:39;;;;;;;17.80;12.38;;;;;;;;;;5054727;28;20208;-72
2024/03/20 11:51:10;;;;;;;24.35;12.55;;;;;;;;;;5052015;28;20704;-72
2024/03/20 11:53:37;;;;;;;17.73;12.55;;;;;;;;;;5054144;28;20276;-72
2024/03/20 11:56:03;;;;;;;19.25;13.98;;;;;;;;;;5047364;28;20664;-72
2024/03/20 11:58:28;;;;;;;20.60;13.38;;;;;;;;;;5053555;28;20185;-72
2024/03/20 12:00:54;;;;;;;20.20;13.88;;;;;;;;;;5060275;28;20208;-72
2024/03/20 12:03:25;;;;;;;19.80;13.63;;;;;;;;;;5030139;28;20195;-72
2024/03/20 12:06:13;;;;;;;19.05;12.88;;;;;;;;;;5053066;28;20188;-72
2024/03/20 12:09:12;;;;;;;18.00;12.95;;;;;;;;;;5044260;28;20254;-72
2024/03/20 12:11:39;;;;;;;17.60;12.07;;;;;;;;;;5053136;28;20188;-72
2024/03/20 12:14:04;;;;;;;18.35;12.20;;;;;;;;;;5053010;28;20193;-72
2024/03/20 12:16:30;;;;;;;17.83;12.70;;;;;;;;;;5054254;28;20518;-72
2024/03/20 12:18:57;;;;;;;17.23;12.32;;;;;;;;;;5052271;28;20459;-73
2024/03/20 12:21:22;;;;;;;16.95;12.40;;;;;;;;;;5050181;28;20797;-73
2024/03/20 12:23:49;;;;;;;16.17;11.35;;;;;;;;;;5055853;28;20220;-73
2024/03/20 12:26:18;;;;;;;14.57;10.55;;;;;;;;;;5052551;28;20263;-73
2024/03/20 12:28:46;;;;;;;14.55;11.23;;;;;;;;;;5052679;28;20277;-73
2024/03/20 12:31:16;;;;;;;17.48;9.50;;;;;;;;;;5053074;28;20192;-73
2024/03/20 12:33:44;;;;;;;15.68;10.25;;;;;;;;;;5055747;28;20664;-73
2024/03/20 12:36:10;;;;;;;14.63;9.25;;;;;;;;;;5052582;28;20236;-72
2024/03/20 12:38:36;;;;;;;15.07;9.68;;;;;;;;;;5052292;28;20539;-72
2024/03/20 12:41:02;;;;;;;13.80;9.65;;;;;;;;;;5053727;28;20208;-72
2024/03/20 12:43:28;;;;;;;14.60;9.93;;;;;;;;;;5060967;28;20197;-72
2024/03/20 12:45:53;;;;;;;13.73;10.10;;;;;;;;;;5051817;28;20178;-72
2024/03/20 12:48:19;;;;;;;17.55;11.10;;;;;;;;;;5061506;28;20193;-72
2024/03/20 12:50:46;;;;;;;14.15;10.63;;;;;;;;;;5059178;28;20189;-72
2024/03/20 12:53:16;;;;;;;19.13;11.98;;;;;;;;;;5055905;28;20180;-72
2024/03/20 12:55:42;;;;;;;15.27;11.52;;;;;;;;;;5056702;28;20243;-72
2024/03/20 12:58:13;;;;;;;17.95;12.02;;;;;;;;;;5060495;28;20185;-72
2024/03/20 13:00:39;;;;;;;19.35;12.20;;;;;;;;;;5057337;28;21294;-72
2024/03/20 13:03:06;;;;;;;18.40;12.10;;;;;;;;;;5049490;28;20178;-73
2024/03/20 13:05:32;;;;;;;19.33;12.43;;;;;;;;;;5055376;28;20779;-73
2024/03/20 13:07:57;;;;;;;15.75;11.93;;;;;;;;;;5050222;28;20281;-72
2024/03/20 13:10:23;;;;;;;16.48;11.38;;;;;;;;;;5054521;28;20181;-71
2024/03/20 13:12:48;;;;;;;17.33;12.68;;;;;;;;;;5057331;28;20606;-73
2024/03/20 13:15:16;;;;;;;16.67;12.95;;;;;;;;;;5056681;28;20209;-72
2024/03/20 13:17:41;;;;;;;16.40;11.93;;;;;;;;;;5057532;28;20627;-73
2024/03/20 13:20:10;;;;;;;17.65;12.30;;;;;;;;;;5054572;28;20216;-73
2024/03/20 13:22:37;;;;;;;18.00;12.45;;;;;;;;;;5055952;28;20200;-73
2024/03/20 13:25:06;;;;;;;17.75;12.45;;;;;;;;;;5064177;28;20556;-73
2024/03/20 13:27:32;;;;;;;17.10;12.45;;;;;;;;;;5056590;28;20189;-72
2024/03/20 13:29:59;;;;;;;18.63;11.73;;;;;;;;;;5057168;28;20177;-73
2024/03/20 13:32:33;;;;;;;19.15;14.00;;;;;;;;;;5056343;28;20275;-73
2024/03/20 13:35:11;;;;;;;16.15;12.10;;;;;;;;;;5056276;28;20241;-73
2024/03/20 13:37:40;;;;;;;16.85;11.75;;;;;;;;;;5052281;28;20228;-74
2024/03/20 13:41:01;;;;;;;16.85;12.73;;;;;;;;;;5061856;28;20213;-73
2024/03/20 13:45:51;;;;;;;19.27;12.25;;;;;;;;;;5055560;28;20313;-73
2024/03/20 13:48:17;;;;;;;19.48;12.52;;;;;;;;;;5063557;28;20660;-73
2024/03/20 13:50:42;;;;;;;20.98;12.02;;;;;;;;;;5054146;28;20267;-73
2024/03/20 13:53:08;;;;;;;18.50;11.45;;;;;;;;;;5057368;28;20190;-73
2024/03/20 13:55:34;;;;;;;14.80;11.68;;;;;;;;;;5055391;28;20220;-73
2024/03/20 13:57:59;;;;;;;17.02;11.73;;;;;;;;;;5055965;28;20198;-73
2024/03/20 14:00:25;;;;;;;17.92;11.48;;;;;;;;;;5056800;28;20192;-73
2024/03/20 14:02:51;;;;;;;17.88;11.27;;;;;;;;;;5056129;28;20186;-73
2024/03/20 14:05:18;;;;;;;18.40;11.55;;;;;;;;;;5055227;28;20229;-73
2024/03/20 14:07:44;;;;;;;17.67;11.60;;;;;;;;;;5056186;28;20280;-73
2024/03/20 14:10:14;;;;;;;17.27;11.68;;;;;;;;;;5055921;28;20276;-72
2024/03/20 14:12:39;;;;;;;16.02;10.38;;;;;;;;;;5047859;28;20186;-73
2024/03/20 14:15:06;;;;;;;18.83;11.45;;;;;;;;;;5055255;28;20702;-73
2024/03/20 14:17:31;;;;;;;15.52;11.30;;;;;;;;;;5050208;28;20224;-72
2024/03/20 14:19:56;;;;;;;14.73;10.68;;;;;;;;;;5057737;28;20645;-73
2024/03/20 14:22:22;;;;;;;15.48;10.57;;;;;;;;;;5056142;28;20254;-72